createdAt,value
2022-09-11T00:01:14.156Z,1.30
2022-09-11T00:03:43.236Z,0.60
2022-09-11T00:06:13.004Z,0.65
2022-09-11T00:08:41.813Z,0.30
2022-09-11T00:11:18.459Z,0.85
2022-09-11T00:13:49.470Z,0.20
2022-09-11T00:16:27.012Z,0.65
2022-09-11T00:18:56.774Z,0.30
2022-09-11T00:21:27.551Z,0.60
2022-09-11T00:23:55.016Z,0.52
2022-09-11T00:26:22.388Z,0.38
2022-09-11T00:28:50.748Z,0.55
2022-09-11T00:31:23.820Z,0.32
2022-09-11T00:33:51.724Z,0.35
2022-09-11T00:36:21.207Z,0.95
2022-09-11T00:38:50.194Z,0.52
2022-09-11T00:41:33.425Z,0.20
2022-09-11T00:44:06.858Z,0.73
2022-09-11T00:46:51.762Z,0.30
2022-09-11T00:49:38.550Z,1.05
2022-09-11T00:52:15.608Z,0.20
2022-09-11T00:54:50.367Z,0.40
2022-09-11T00:57:23.292Z,0.30
2022-09-11T00:59:55.922Z,0.13
2022-09-11T01:02:27.630Z,0.73
2022-09-11T01:04:56.947Z,0.22
2022-09-11T01:07:27.092Z,0.70
2022-09-11T01:09:55.929Z,0.45
2022-09-11T01:12:36.643Z,0.40
2022-09-11T01:15:08.431Z,0.60
2022-09-11T01:17:55.287Z,0.68
2022-09-11T01:20:33.777Z,0.13
2022-09-11T01:23:25.360Z,0.68
2022-09-11T01:26:01.210Z,0.63
2022-09-11T01:28:38.486Z,0.63
2022-09-11T01:31:15.645Z,1.05
2022-09-11T01:33:47.901Z,0.30
2022-09-11T01:36:32.394Z,0.30
2022-09-11T01:39:05.118Z,0.40
2022-09-11T01:41:48.613Z,0.20
2022-09-11T01:44:23.028Z,0.55
2022-09-11T01:46:53.294Z,0.30
2022-09-11T01:49:31.987Z,0.38
2022-09-11T01:52:03.375Z,0.70
2022-09-11T01:54:42.847Z,0.10
2022-09-11T01:57:30.450Z,0.40
2022-09-11T02:00:02.159Z,0.85
2022-09-11T02:03:11.228Z,0.88
2022-09-11T02:05:45.829Z,0.38
2022-09-11T02:11:03.563Z,0.30
2022-09-11T02:13:37.316Z,0.32
2022-09-11T02:16:14.698Z,0.50
2022-09-11T02:18:53.525Z,0.50
2022-09-11T02:21:22.551Z,0.30
2022-09-11T02:23:50.133Z,0.45
2022-09-11T02:26:19.794Z,0.98
2022-09-11T02:28:47.264Z,0.28
2022-09-11T02:31:14.613Z,0.50
2022-09-11T02:33:43.539Z,0.38
2022-09-11T02:36:31.947Z,0.30
2022-09-11T02:39:07.879Z,0.60
2022-09-11T02:42:02.500Z,0.57
2022-09-11T02:45:03.491Z,0.55
2022-09-11T02:47:55.976Z,0.45
2022-09-11T02:51:00.152Z,0.63
2022-09-11T02:53:48.049Z,1.13
2022-09-11T02:56:31.147Z,0.75
2022-09-11T02:59:04.219Z,0.75
2022-09-11T03:01:46.454Z,0.70
2022-09-11T03:04:15.496Z,0.47
2022-09-11T03:06:43.247Z,0.90
2022-09-11T03:09:10.741Z,0.77
2022-09-11T03:14:20.757Z,0.75
2022-09-11T03:16:48.654Z,0.77
2022-09-11T03:19:15.856Z,1.40
2022-09-11T03:21:43.019Z,0.32
2022-09-11T03:24:10.664Z,0.47
2022-09-11T03:26:38.641Z,0.25
2022-09-11T03:29:06.248Z,0.20
2022-09-11T03:31:37.368Z,0.43
2022-09-11T03:34:06.613Z,0.93
2022-09-11T03:39:02.481Z,1.15
2022-09-11T03:41:31.046Z,0.60
2022-09-11T03:43:58.228Z,0.52
2022-09-11T03:46:25.647Z,1.40
2022-09-11T03:48:53.315Z,0.60
2022-09-11T03:51:21.249Z,0.70
2022-09-11T03:53:48.366Z,1.00
2022-09-11T03:56:16.042Z,0.40
2022-09-11T03:58:48.357Z,0.90
2022-09-11T04:01:19.146Z,0.70
2022-09-11T04:03:46.774Z,0.85
2022-09-11T04:06:22.483Z,1.48
2022-09-11T04:08:49.884Z,0.73
2022-09-11T04:11:18.171Z,1.30
2022-09-11T04:13:45.693Z,1.33
2022-09-11T04:16:18.511Z,1.08
2022-09-11T04:18:54.072Z,1.27
2022-09-11T04:21:23.703Z,0.68
2022-09-11T04:23:56.458Z,1.23
2022-09-11T04:26:27.538Z,1.10
2022-09-11T04:29:01.364Z,0.85
2022-09-11T04:31:29.198Z,0.50
2022-09-11T04:33:58.146Z,0.65
2022-09-11T04:36:30.099Z,0.55
2022-09-11T04:39:00.195Z,0.93
2022-09-11T04:41:28.888Z,0.85
2022-09-11T04:44:05.401Z,0.93
2022-09-11T04:46:37.919Z,0.40
2022-09-11T04:49:09.122Z,0.98
2022-09-11T04:51:38.297Z,0.55
2022-09-11T04:54:07.851Z,0.93
2022-09-11T04:56:40.139Z,0.60
2022-09-11T04:59:16.478Z,1.10
2022-09-11T05:01:48.691Z,0.73
2022-09-11T05:04:21.737Z,0.93
2022-09-11T05:06:50.301Z,1.40
2022-09-11T05:09:19.853Z,0.60
2022-09-11T05:11:48.652Z,0.90
2022-09-11T05:14:17.126Z,0.45
2022-09-11T05:16:46.578Z,1.10
2022-09-11T05:19:16.072Z,0.70
2022-09-11T05:21:45.380Z,1.33
2022-09-11T05:24:12.541Z,0.73
2022-09-11T05:26:41.121Z,0.98
2022-09-11T05:29:12.774Z,0.77
2022-09-11T05:31:46.111Z,1.10
2022-09-11T05:34:16.057Z,0.95
2022-09-11T05:36:43.288Z,0.60
2022-09-11T05:39:10.687Z,0.57
2022-09-11T05:41:39.386Z,1.45
2022-09-11T05:44:07.500Z,1.65
2022-09-11T05:46:37.584Z,1.90
2022-09-11T05:49:06.215Z,2.28
2022-09-11T05:51:35.822Z,0.80
2022-09-11T05:54:04.235Z,1.55
2022-09-11T05:56:32.792Z,1.42
2022-09-11T05:59:04.137Z,1.85
2022-09-11T06:01:36.218Z,0.93
2022-09-11T06:04:12.578Z,1.00
2022-09-11T06:06:43.717Z,1.35
2022-09-11T06:09:10.903Z,0.77
2022-09-11T06:11:38.147Z,1.48
2022-09-11T06:14:05.276Z,0.65
2022-09-11T06:16:32.978Z,0.90
2022-09-11T06:19:07.691Z,1.08
2022-09-11T06:21:35.549Z,1.35
2022-09-11T06:24:09.934Z,0.20
2022-09-11T06:26:37.479Z,0.73
2022-09-11T06:29:04.886Z,0.60
2022-09-11T06:31:36.512Z,2.20
2022-09-11T06:34:04.171Z,1.40
2022-09-11T06:36:32.029Z,1.48
2022-09-11T06:39:03.170Z,1.65
2022-09-11T06:41:33.237Z,1.80
2022-09-11T06:44:09.910Z,1.92
2022-09-11T06:46:39.722Z,1.67
2022-09-11T06:49:09.129Z,1.98
2022-09-11T06:51:56.185Z,1.40
2022-09-11T06:54:23.405Z,1.88
2022-09-11T06:56:52.433Z,1.95
2022-09-11T06:59:23.761Z,1.23
2022-09-11T07:01:51.922Z,2.63
2022-09-11T07:04:19.441Z,2.03
2022-09-11T07:06:50.275Z,2.22
2022-09-11T07:09:18.044Z,2.38
2022-09-11T07:11:51.597Z,2.42
2022-09-11T07:14:23.614Z,1.80
2022-09-11T07:16:55.982Z,2.15
2022-09-11T07:19:25.921Z,1.05
2022-09-11T07:21:53.532Z,2.35
2022-09-11T07:24:23.817Z,2.35
2022-09-11T07:26:51.171Z,1.55
2022-09-11T07:29:27.263Z,1.63
2022-09-11T07:31:57.805Z,3.03
2022-09-11T07:34:28.719Z,2.53
2022-09-11T07:36:59.247Z,2.00
2022-09-11T07:39:27.853Z,2.45
2022-09-11T07:42:10.244Z,2.05
2022-09-11T07:44:39.504Z,1.02
2022-09-11T07:47:08.834Z,2.90
2022-09-11T07:49:42.650Z,2.50
2022-09-11T07:52:16.172Z,2.30
2022-09-11T07:54:51.615Z,1.20
2022-09-11T07:57:22.580Z,1.75
2022-09-11T07:59:51.808Z,1.15
2022-09-11T08:02:20.953Z,1.35
2022-09-11T08:04:50.310Z,1.52
2022-09-11T08:07:18.884Z,1.65
2022-09-11T08:09:46.934Z,1.88
2022-09-11T08:12:15.204Z,1.85
2022-09-11T08:14:44.431Z,1.52
2022-09-11T08:17:22.617Z,3.30
2022-09-11T08:19:50.821Z,1.17
2022-09-11T08:22:18.908Z,1.73
2022-09-11T08:24:49.258Z,1.73
2022-09-11T08:27:20.564Z,1.27
2022-09-11T08:29:48.553Z,2.22
2022-09-11T08:32:17.107Z,2.33
2022-09-11T08:34:44.981Z,2.88
2022-09-11T08:37:13.309Z,3.90
2022-09-11T08:39:42.510Z,2.63
2022-09-11T08:42:17.259Z,2.55
2022-09-11T08:44:55.928Z,2.22
2022-09-11T08:47:41.687Z,2.65
2022-09-11T08:50:23.619Z,2.55
2022-09-11T08:52:55.049Z,1.83
2022-09-11T08:55:40.659Z,2.17
2022-09-11T08:58:19.584Z,4.10
2022-09-11T09:01:02.906Z,2.13
2022-09-11T09:03:38.415Z,3.17
2022-09-11T09:06:26.093Z,3.33
2022-09-11T09:09:13.979Z,4.47
2022-09-11T09:12:00.795Z,3.58
2022-09-11T09:14:37.055Z,3.42
2022-09-11T09:17:26.529Z,2.88
2022-09-11T09:20:09.732Z,3.92
2022-09-11T09:22:47.330Z,2.67
2022-09-11T09:25:20.560Z,3.28
2022-09-11T09:28:26.121Z,4.72
2022-09-11T09:31:00.402Z,2.92
2022-09-11T09:33:35.525Z,3.00
2022-09-11T09:36:18.265Z,4.43
2022-09-11T09:38:49.103Z,4.20
2022-09-11T09:41:56.862Z,3.08
2022-09-11T09:44:53.135Z,3.45
2022-09-11T09:47:21.507Z,3.38
2022-09-11T09:49:51.306Z,4.07
2022-09-11T09:52:25.324Z,4.03
2022-09-11T09:55:15.784Z,5.05
2022-09-11T09:57:44.374Z,5.13
2022-09-11T10:00:13.376Z,3.67
2022-09-11T10:02:51.063Z,3.47
2022-09-11T10:08:40.711Z,2.22
2022-09-11T10:11:13.729Z,3.00
2022-09-11T10:13:44.558Z,3.28
2022-09-11T10:16:27.727Z,3.05
2022-09-11T10:18:57.323Z,3.75
2022-09-11T10:21:26.483Z,2.90
2022-09-11T10:23:58.676Z,3.88
2022-09-11T10:26:45.437Z,3.38
2022-09-11T10:29:19.056Z,2.83
2022-09-11T10:32:02.728Z,3.20
2022-09-11T10:34:39.870Z,1.67
2022-09-11T10:37:14.343Z,2.88
2022-09-11T10:39:47.298Z,1.88
2022-09-11T10:42:22.526Z,2.63
2022-09-11T10:44:53.458Z,3.00
2022-09-11T10:47:22.198Z,3.28
2022-09-11T10:50:15.005Z,1.95
2022-09-11T10:53:12.404Z,2.28
2022-09-11T10:56:01.438Z,2.40
2022-09-11T10:58:37.572Z,2.35
2022-09-11T11:01:05.600Z,3.78
2022-09-11T11:06:26.379Z,1.27
2022-09-11T11:09:17.842Z,1.38
2022-09-11T11:12:01.839Z,1.42
2022-09-11T11:14:46.349Z,2.03
2022-09-11T11:17:40.352Z,1.98
2022-09-11T11:20:27.503Z,1.80
2022-09-11T11:23:06.587Z,3.33
2022-09-11T11:25:41.542Z,1.85
2022-09-11T11:28:51.959Z,1.60
2022-09-11T11:31:44.365Z,2.95
2022-09-11T11:34:21.679Z,2.20
2022-09-11T11:37:01.992Z,3.22
2022-09-11T11:40:15.319Z,2.65
2022-09-11T11:42:55.928Z,2.50
2022-09-11T11:45:32.653Z,2.92
2022-09-11T11:48:17.895Z,2.28
2022-09-11T11:50:50.342Z,2.58
2022-09-11T11:53:30.361Z,2.90
2022-09-11T11:56:13.735Z,1.85
2022-09-11T11:58:53.866Z,1.67
2022-09-11T12:01:30.427Z,0.90
2022-09-11T12:04:12.666Z,2.93
2022-09-11T12:06:40.774Z,1.75
2022-09-11T12:09:11.187Z,1.50
2022-09-11T12:11:56.189Z,1.30
2022-09-11T12:14:27.245Z,1.40
2022-09-11T12:17:25.721Z,2.08
2022-09-11T12:20:14.842Z,1.67
2022-09-11T12:22:50.628Z,2.30
2022-09-11T12:25:21.418Z,2.47
2022-09-11T12:27:54.032Z,1.58
2022-09-11T12:30:28.343Z,3.20
2022-09-11T12:33:01.793Z,3.17
2022-09-11T12:36:05.888Z,1.73
2022-09-11T12:39:00.656Z,2.85
2022-09-11T12:41:36.165Z,3.53
2022-09-11T12:44:06.910Z,3.38
2022-09-11T12:46:35.889Z,2.40
2022-09-11T12:49:28.532Z,3.15
2022-09-11T12:52:02.325Z,3.63
2022-09-11T12:54:44.278Z,1.98
2022-09-11T12:57:21.805Z,2.25
2022-09-11T12:59:59.595Z,2.58
2022-09-11T13:02:40.643Z,3.00
2022-09-11T13:05:27.970Z,2.15
2022-09-11T13:08:01.550Z,2.45
2022-09-11T13:10:37.620Z,2.08
2022-09-11T13:13:37.307Z,2.95
2022-09-11T13:16:29.255Z,2.70
2022-09-11T13:19:17.364Z,2.75
2022-09-11T13:21:58.559Z,2.47
2022-09-11T13:24:33.462Z,3.20
2022-09-11T13:27:09.314Z,1.50
2022-09-11T13:29:40.509Z,0.80
2022-09-11T13:32:14.122Z,2.65
2022-09-11T13:34:58.415Z,2.78
2022-09-11T13:37:38.844Z,1.98
2022-09-11T13:40:14.691Z,2.13
2022-09-11T13:42:43.551Z,2.20
2022-09-11T13:45:17.700Z,1.20
2022-09-11T13:47:45.919Z,1.17
2022-09-11T13:50:16.743Z,0.75
2022-09-11T13:52:46.289Z,2.25
2022-09-11T13:55:23.175Z,1.50
2022-09-11T13:57:58.932Z,0.93
2022-09-11T14:00:42.619Z,1.25
2022-09-11T14:03:43.405Z,0.93
2022-09-11T14:06:21.454Z,1.42
2022-09-11T14:08:53.923Z,1.63
2022-09-11T14:11:31.009Z,0.88
2022-09-11T14:14:07.403Z,1.73
2022-09-11T14:16:48.152Z,1.20
2022-09-11T14:19:28.795Z,1.52
2022-09-11T14:21:56.900Z,1.08
2022-09-11T14:24:36.862Z,1.17
2022-09-11T14:27:31.367Z,1.63
2022-09-11T14:30:01.365Z,0.85
2022-09-11T14:32:40.627Z,1.02
2022-09-11T14:35:16.354Z,2.10
2022-09-11T14:37:47.695Z,1.05
2022-09-11T14:40:22.239Z,1.02
2022-09-11T14:42:51.954Z,2.33
2022-09-11T14:45:24.819Z,2.00
2022-09-11T14:47:54.062Z,0.65
2022-09-11T14:50:24.892Z,1.25
2022-09-11T14:52:53.369Z,1.70
2022-09-11T14:55:21.593Z,0.22
2022-09-11T15:00:18.769Z,0.85
2022-09-11T15:02:48.057Z,1.20
2022-09-11T15:05:19.265Z,1.08
2022-09-11T15:07:47.481Z,0.75
2022-09-11T15:10:16.383Z,0.77
2022-09-11T15:12:45.825Z,0.70
2022-09-11T15:15:18.026Z,1.15
2022-09-11T15:17:47.093Z,1.13
2022-09-11T15:20:15.227Z,1.25
2022-09-11T15:22:45.389Z,1.23
2022-09-11T15:25:13.854Z,1.10
2022-09-11T15:27:42.498Z,1.60
2022-09-11T15:30:11.339Z,2.05
2022-09-11T15:32:41.053Z,0.63
2022-09-11T15:35:10.116Z,1.08
2022-09-11T15:40:08.373Z,0.68
2022-09-11T15:42:39.885Z,1.35
2022-09-11T15:45:32.965Z,0.55
2022-09-11T15:48:11.522Z,1.00
2022-09-11T15:50:44.138Z,2.08
2022-09-11T15:53:12.295Z,0.98
2022-09-11T15:55:39.991Z,1.73
2022-09-11T15:58:07.718Z,0.57
2022-09-11T16:00:35.870Z,0.45
2022-09-11T16:03:05.238Z,1.25
2022-09-11T16:05:44.841Z,0.70
2022-09-11T16:08:16.286Z,1.00
2022-09-11T16:10:44.755Z,1.25
2022-09-11T16:13:13.051Z,1.15
2022-09-11T16:15:41.393Z,1.60
2022-09-11T16:18:10.293Z,1.58
2022-09-11T16:20:45.573Z,0.70
2022-09-11T16:23:15.556Z,2.22
2022-09-11T16:25:47.489Z,1.52
2022-09-11T16:28:16.430Z,0.32
2022-09-11T16:30:47.501Z,1.42
2022-09-11T16:33:18.649Z,1.02
2022-09-11T16:36:17.007Z,0.98
2022-09-11T16:38:46.850Z,1.35
2022-09-11T16:41:20.535Z,1.02
2022-09-11T16:43:51.637Z,1.10
2022-09-11T16:46:24.777Z,1.10
2022-09-11T16:48:58.737Z,1.38
2022-09-11T16:51:33.752Z,1.08
2022-09-11T16:54:04.468Z,1.00
2022-09-11T16:56:36.265Z,1.65
2022-09-11T16:59:05.393Z,0.63
2022-09-11T17:01:33.475Z,1.60
2022-09-11T17:04:02.066Z,2.08
2022-09-11T17:06:30.434Z,1.00
2022-09-11T17:09:00.427Z,0.73
2022-09-11T17:11:32.657Z,2.08
2022-09-11T17:14:03.335Z,2.15
2022-09-11T17:16:33.161Z,2.13
2022-09-11T17:19:01.734Z,2.05
2022-09-11T17:21:37.401Z,1.50
2022-09-11T17:24:07.915Z,0.90
2022-09-11T17:26:46.894Z,1.88
2022-09-11T17:29:22.523Z,1.27
2022-09-11T17:32:10.532Z,1.08
2022-09-11T17:34:43.580Z,1.38
2022-09-11T17:37:11.878Z,1.55
2022-09-11T17:39:41.541Z,1.40
2022-09-11T17:42:13.270Z,1.17
2022-09-11T17:44:44.343Z,2.75
2022-09-11T17:47:12.515Z,1.25
2022-09-11T17:49:40.310Z,0.95
2022-09-11T17:52:09.658Z,1.80
2022-09-11T17:54:38.187Z,2.08
2022-09-11T17:57:06.026Z,1.35
2022-09-11T17:59:34.390Z,1.73
2022-09-11T18:02:07.780Z,1.45
2022-09-11T18:04:40.247Z,1.80
2022-09-11T18:07:10.074Z,1.33
2022-09-11T18:09:46.537Z,1.17
2022-09-11T18:12:26.535Z,2.35
2022-09-11T18:14:56.252Z,1.58
2022-09-11T18:17:24.045Z,0.75
2022-09-11T18:19:52.263Z,1.10
2022-09-11T18:22:22.066Z,1.27
2022-09-11T18:24:53.197Z,1.38
2022-09-11T18:27:21.374Z,1.83
2022-09-11T18:29:50.282Z,1.98
2022-09-11T18:32:19.989Z,2.10
2022-09-11T18:34:48.808Z,1.25
2022-09-11T18:37:22.230Z,1.52
2022-09-11T18:39:50.426Z,1.08
2022-09-11T18:42:19.423Z,1.77
2022-09-11T18:44:48.211Z,2.53
2022-09-11T18:47:18.728Z,1.10
2022-09-11T18:49:47.412Z,1.20
2022-09-11T18:52:17.147Z,1.40
2022-09-11T18:54:45.502Z,1.73
2022-09-11T18:57:14.113Z,1.27
2022-09-11T18:59:41.528Z,0.70
2022-09-11T19:02:10.197Z,0.68
2022-09-11T19:04:38.167Z,1.33
2022-09-11T19:07:06.076Z,0.95
2022-09-11T19:09:35.807Z,0.90
2022-09-11T19:12:05.589Z,2.33
2022-09-11T19:14:33.721Z,1.40
2022-09-11T19:19:32.209Z,1.55
2022-09-11T19:22:00.998Z,1.17
2022-09-11T19:24:30.549Z,2.40
2022-09-11T19:27:00.182Z,2.38
2022-09-11T19:29:28.929Z,2.55
2022-09-11T19:32:03.886Z,1.70
2022-09-11T19:34:38.562Z,0.47
2022-09-11T19:37:08.945Z,1.58
2022-09-11T19:39:39.515Z,1.23
2022-09-11T19:42:11.167Z,1.13
2022-09-11T19:44:50.361Z,1.58
2022-09-11T19:47:21.220Z,1.13
2022-09-11T19:50:00.323Z,1.45
2022-09-11T19:52:46.739Z,1.17
2022-09-11T19:55:17.358Z,2.92
2022-09-11T19:57:45.892Z,2.25
2022-09-11T20:00:15.039Z,2.10
2022-09-11T20:02:45.805Z,1.35
2022-09-11T20:05:14.029Z,0.77
2022-09-11T20:07:42.405Z,2.72
2022-09-11T20:10:10.850Z,1.92
2022-09-11T20:12:49.480Z,1.73
2022-09-11T20:15:38.192Z,1.75
2022-09-11T20:18:27.130Z,1.27
2022-09-11T20:21:07.821Z,2.70
2022-09-11T20:23:36.222Z,1.92
2022-09-11T20:26:25.826Z,1.42
2022-09-11T20:28:58.142Z,1.98
2022-09-11T20:31:28.933Z,1.75
2022-09-11T20:34:01.927Z,2.67
2022-09-11T20:37:10.235Z,1.42
2022-09-11T20:40:12.363Z,1.42
2022-09-11T20:43:00.480Z,1.02
2022-09-11T20:45:44.842Z,2.00
2022-09-11T20:48:20.801Z,0.95
2022-09-11T20:51:00.509Z,2.33
2022-09-11T20:53:32.495Z,2.40
2022-09-11T20:56:07.957Z,1.58
2022-09-11T20:59:25.346Z,1.95
2022-09-11T21:02:04.057Z,1.65
2022-09-11T21:04:38.990Z,1.67
2022-09-11T21:07:16.233Z,1.02
2022-09-11T21:09:48.458Z,0.60
2022-09-11T21:12:20.462Z,2.05
2022-09-11T21:14:51.674Z,1.60
2022-09-11T21:17:34.079Z,1.55
2022-09-11T21:20:12.102Z,1.20
2022-09-11T21:23:10.079Z,2.13
2022-09-11T21:26:11.541Z,1.42
2022-09-11T21:28:43.753Z,1.23
2022-09-11T21:31:19.501Z,0.93
2022-09-11T21:34:01.853Z,1.67
2022-09-11T21:36:49.147Z,2.72
2022-09-11T21:39:26.762Z,1.38
2022-09-11T21:42:02.056Z,1.58
2022-09-11T21:44:33.918Z,2.35
2022-09-11T21:47:31.507Z,2.50
2022-09-11T21:50:10.777Z,1.55
2022-09-11T21:52:46.350Z,1.80
2022-09-11T21:55:25.097Z,1.58
2022-09-11T21:58:30.153Z,1.38
2022-09-11T22:01:10.431Z,0.82
2022-09-11T22:03:42.142Z,1.55
2022-09-11T22:06:23.409Z,1.48
2022-09-11T22:08:55.011Z,2.03
2022-09-11T22:11:26.992Z,1.95
2022-09-11T22:13:58.947Z,2.55
2022-09-11T22:20:06.247Z,2.50
2022-09-11T22:23:34.517Z,2.13
2022-09-11T22:26:16.892Z,1.85
2022-09-11T22:29:06.714Z,2.00
2022-09-11T22:31:45.891Z,2.17
2022-09-11T22:34:17.987Z,1.40
2022-09-11T22:37:15.970Z,2.28
2022-09-11T22:39:51.946Z,1.45
2022-09-11T22:42:24.889Z,1.40
2022-09-11T22:45:16.911Z,2.05
2022-09-11T22:51:25.483Z,1.77
2022-09-11T22:54:05.939Z,2.33
2022-09-11T22:56:49.333Z,2.85
2022-09-11T22:59:59.979Z,1.88
2022-09-11T23:02:38.452Z,2.42
2022-09-11T23:05:33.331Z,2.60
2022-09-11T23:08:04.506Z,1.92
2022-09-11T23:10:36.319Z,1.80
2022-09-11T23:13:37.153Z,2.30
2022-09-11T23:16:23.107Z,2.25
2022-09-11T23:19:03.462Z,1.90
2022-09-11T23:21:56.610Z,3.45
2022-09-11T23:24:33.636Z,1.55
2022-09-11T23:27:25.677Z,2.92
2022-09-11T23:30:24.514Z,1.73
2022-09-11T23:33:04.414Z,1.70
2022-09-11T23:35:40.747Z,2.33
2022-09-11T23:38:21.213Z,2.63
2022-09-11T23:41:04.574Z,2.25
2022-09-11T23:43:37.292Z,3.13
2022-09-11T23:46:21.535Z,3.05
2022-09-11T23:48:52.709Z,2.53
2022-09-11T23:51:26.288Z,1.83
2022-09-11T23:54:09.990Z,2.60
2022-09-11T23:56:47.185Z,2.42
2022-09-11T23:59:20.217Z,2.45
